Time;durP1;ratioP1;P1;durP2;ratioP2;P2;SDS_P1;SDS_P2;PMS_P1;PMS_P2;Temp;Humidity;BMP_temperature;BMP_pressure;BME280_temperature;BME280_humidity;BME280_pressure;Samples;Min_cycle;Max_cycle;Signal;HPM_P1;HPM_P2
2024/03/11 00:00:15;;;;;;;;;;;;;;;-144.99;91.19;52480.72;4955333;28;20382;-67
2024/03/11 00:02:42;;;;;;;;;;;;;;;-144.99;91.44;52488.84;5002105;23;19969;-68
2024/03/11 00:05:11;;;;;;;;;;;;;;;-144.99;91.20;52509.25;5013671;28;19936;-69
2024/03/11 00:07:38;;;;;;;;;;;;;;;-144.99;91.39;52497.00;5009426;28;19949;-70
2024/03/11 00:10:05;;;;;;;;;;;;;;;-144.99;91.11;52476.63;5006226;28;20390;-70
2024/03/11 00:12:38;;;;;;;;;;;;;;;-144.99;91.11;52472.56;5004200;28;20363;-68
2024/03/11 00:15:07;;;;;;;;;;;;;;;-144.99;91.51;52488.84;5003853;28;19937;-73
2024/03/11 00:17:33;;;;;;;;;;;;;;;-144.99;91.64;52480.72;5006158;28;19936;-68
2024/03/11 00:20:00;;;;;;;;;;;;;;;-144.99;91.27;52497.00;5002961;28;20021;-71
2024/03/11 00:22:28;;;;;;;;;;;;;;;-144.99;91.18;52464.41;5008559;28;20040;-72
2024/03/11 00:24:54;;;;;;;;;;;;;;;-144.99;90.88;52482.75;5002149;28;19968;-72
2024/03/11 00:27:21;;;;;;;;;;;;;;;-144.99;90.98;52476.63;5008768;28;20000;-72
2024/03/11 00:29:50;;;;;;;;;;;;;;;-144.99;90.84;52433.81;5009837;28;20051;-68
2024/03/11 00:32:16;;;;;;;;;;;;;;;-144.99;90.82;52497.00;5008145;28;19950;-66
2024/03/11 00:34:43;;;;;;;;;;;;;;;-144.99;91.02;52501.09;5008678;28;20030;-69
2024/03/11 00:37:12;;;;;;;;;;;;;;;-144.99;91.07;52464.41;5009180;28;20035;-66
2024/03/11 00:39:40;;;;;;;;;;;;;;;-144.99;91.33;52452.16;5006130;28;19990;-65
2024/03/11 00:42:06;;;;;;;;;;;;;;;-144.99;91.02;52517.41;5006898;28;19962;-63
2024/03/11 00:44:33;;;;;;;;;;;;;;;-144.99;91.09;52492.94;5008386;28;20022;-63
2024/03/11 00:46:59;;;;;;;;;;;;;;;-144.99;91.26;52478.66;5008823;28;20463;-67
2024/03/11 00:49:27;;;;;;;;;;;;;;;-144.99;91.05;52505.16;5002914;28;20408;-67
2024/03/11 00:51:54;;;;;;;;;;;;;;;-144.99;90.84;52448.09;5002588;28;20030;-67
2024/03/11 00:54:22;;;;;;;;;;;;;;;-144.99;90.44;52437.91;5008500;28;19947;-67
2024/03/11 00:56:50;;;;;;;;;;;;;;;-144.99;90.82;52460.31;5009393;28;19939;-65
2024/03/11 00:59:18;;;;;;;;;;;;;;;-144.99;91.00;52519.44;5007921;28;19938;-66
2024/03/11 01:01:44;;;;;;;;;;;;;;;-144.99;90.62;52480.72;5009467;28;19955;-73
2024/03/11 01:04:11;;;;;;;;;;;;;;;-144.99;90.47;52444.03;5003740;28;20007;-65
2024/03/11 01:06:37;;;;;;;;;;;;;;;-144.99;90.42;52497.00;4999842;28;20071;-67
2024/03/11 01:09:04;;;;;;;;;;;;;;;-144.99;90.48;52501.09;5004793;28;19952;-66
2024/03/11 01:11:31;;;;;;;;;;;;;;;-144.99;90.81;52478.66;5007245;28;19959;-66
2024/03/11 01:13:59;;;;;;;;;;;;;;;-144.99;90.86;52501.09;5008124;28;19971;-67
2024/03/11 01:16:26;;;;;;;;;;;;;;;-144.99;91.10;52484.78;5007917;28;19982;-67
2024/03/11 01:18:53;;;;;;;;;;;;;;;-144.99;90.98;52472.56;5005964;28;19946;-67
2024/03/11 01:21:20;;;;;;;;;;;;;;;-144.99;90.69;52484.78;5006476;28;19997;-67
2024/03/11 01:23:47;;;;;;;;;;;;;;;-144.99;90.73;52462.34;5004189;28;19958;-67
2024/03/11 01:26:13;;;;;;;;;;;;;;;-144.99;91.09;52446.06;5005071;28;20042;-68
2024/03/11 01:28:41;;;;;;;;;;;;;;;-144.99;90.70;52480.72;5008510;28;19999;-67
2024/03/11 01:31:10;;;;;;;;;;;;;;;-144.99;90.91;52435.88;5003739;28;20036;-66
2024/03/11 01:33:36;;;;;;;;;;;;;;;-144.99;90.91;52484.78;5004102;28;19945;-67
2024/03/11 01:36:03;;;;;;;;;;;;;;;-144.99;91.16;52476.63;5000219;28;20100;-66
2024/03/11 01:38:29;;;;;;;;;;;;;;;-144.99;91.58;52466.44;5000764;28;19936;-65
2024/03/11 01:40:56;;;;;;;;;;;;;;;-144.99;91.40;52478.66;4999001;28;20334;-65
2024/03/11 01:43:24;;;;;;;;;;;;;;;-144.99;91.08;52466.44;5002699;28;19936;-65
2024/03/11 01:45:51;;;;;;;;;;;;;;;-144.99;91.21;52450.13;5002394;28;20045;-65
2024/03/11 01:48:19;;;;;;;;;;;;;;;-144.99;91.39;52505.16;5009278;28;19968;-66
2024/03/11 01:50:45;;;;;;;;;;;;;;;-144.99;91.14;52503.13;5008992;28;20067;-66
2024/03/11 01:53:12;;;;;;;;;;;;;;;-144.99;91.58;52452.16;5004340;28;20386;-66
2024/03/11 01:55:38;;;;;;;;;;;;;;;-144.99;91.49;52499.06;5007532;28;19945;-66
2024/03/11 01:58:09;;;;;;;;;;;;;;;-144.99;91.02;52452.16;5003895;28;19995;-66
2024/03/11 02:00:36;;;;;;;;;;;;;;;-144.99;91.35;52521.47;5008231;28;20409;-65
2024/03/11 02:03:02;;;;;;;;;;;;;;;-144.99;91.39;52501.09;5006771;28;19943;-66
2024/03/11 02:05:30;;;;;;;;;;;;;;;-144.99;91.22;52492.94;5008982;28;20379;-69
2024/03/11 02:07:59;;;;;;;;;;;;;;;-144.99;91.02;52486.81;5002747;28;20009;-69
2024/03/11 02:10:26;;;;;;;;;;;;;;;-144.99;91.28;52460.31;5005712;28;20003;-71
2024/03/11 02:12:53;;;;;;;;;;;;;;;-144.99;91.54;52431.78;5003868;28;20374;-70
2024/03/11 02:15:20;;;;;;;;;;;;;;;-144.99;91.12;52462.34;4998186;28;20133;-70
2024/03/11 02:17:47;;;;;;;;;;;;;;;-144.99;91.22;52464.41;5003512;28;20037;-70
2024/03/11 02:20:16;;;;;;;;;;;;;;;-144.99;91.75;52488.84;5007747;28;19958;-71
2024/03/11 02:22:46;;;;;;;;;;;;;;;-144.99;91.68;52492.94;5003305;28;20086;-71
2024/03/11 02:25:15;;;;;;;;;;;;;;;-144.99;91.61;52488.84;5004400;28;19942;-71
2024/03/11 02:27:42;;;;;;;;;;;;;;;-144.99;91.62;52482.75;5003373;28;20083;-71
2024/03/11 02:30:10;;;;;;;;;;;;;;;-144.99;91.99;52488.84;5004575;28;20432;-71
2024/03/11 02:32:37;;;;;;;;;;;;;;;-144.99;91.56;52464.41;5005994;28;20380;-71
2024/03/11 02:35:03;;;;;;;;;;;;;;;-144.99;91.49;52513.31;5002365;28;19945;-71
2024/03/11 02:37:30;;;;;;;;;;;;;;;-144.99;91.43;52464.41;5001612;28;20384;-71
2024/03/11 02:39:56;;;;;;;;;;;;;;;-144.99;91.79;52474.59;5004299;28;20030;-69
2024/03/11 02:42:25;;;;;;;;;;;;;;;-144.99;92.02;52484.78;5000619;28;20043;-68
2024/03/11 02:44:52;;;;;;;;;;;;;;;-144.99;91.90;52476.63;5002653;28;19942;-68
2024/03/11 02:47:20;;;;;;;;;;;;;;;-144.99;91.99;52480.72;5000354;28;19948;-69
2024/03/11 02:49:47;;;;;;;;;;;;;;;-144.99;91.70;52456.25;5003518;28;19955;-69
2024/03/11 02:52:13;;;;;;;;;;;;;;;-144.99;91.65;52484.78;5007500;28;20126;-69
2024/03/11 02:54:40;;;;;;;;;;;;;;;-144.99;91.82;52474.59;5007031;28;19946;-76
2024/03/11 02:57:07;;;;;;;;;;;;;;;-144.99;91.84;52505.16;5001103;28;20418;-70
2024/03/11 02:59:35;;;;;;;;;;;;;;;-144.99;91.67;52456.25;5002336;28;19989;-70
2024/03/11 03:02:01;;;;;;;;;;;;;;;-144.99;92.29;52439.94;5006096;28;20032;-71
2024/03/11 03:04:30;;;;;;;;;;;;;;;-144.99;91.92;52509.25;5007239;28;19979;-72
2024/03/11 03:06:57;;;;;;;;;;;;;;;-144.99;92.40;52492.94;5005062;28;19954;-72
2024/03/11 03:09:24;;;;;;;;;;;;;;;-144.99;92.26;52501.09;5003918;28;19938;-71
2024/03/11 03:11:50;;;;;;;;;;;;;;;-144.99;92.35;52490.91;5003503;28;19945;-70
2024/03/11 03:14:17;;;;;;;;;;;;;;;-144.99;92.02;52472.56;5005909;28;19990;-70
2024/03/11 03:16:45;;;;;;;;;;;;;;;-144.99;92.40;52456.25;5006195;28;19946;-69
2024/03/11 03:19:11;;;;;;;;;;;;;;;-144.99;92.63;52468.47;5004374;28;19943;-69
2024/03/11 03:21:38;;;;;;;;;;;;;;;-144.99;92.35;52501.09;5008691;28;20077;-69
2024/03/11 03:24:04;;;;;;;;;;;;;;;-144.99;92.56;52460.31;5009925;28;20405;-69
2024/03/11 03:26:31;;;;;;;;;;;;;;;-144.99;92.58;52476.63;4999066;28;19938;-69
2024/03/11 03:28:57;;;;;;;;;;;;;;;-144.99;92.57;52446.06;5008477;28;19965;-69
2024/03/11 03:31:24;;;;;;;;;;;;;;;-144.99;92.76;52501.09;5010327;28;20394;-69
2024/03/11 03:33:53;;;;;;;;;;;;;;;-144.99;93.07;52472.56;5008960;28;20365;-68
2024/03/11 03:36:19;;;;;;;;;;;;;;;-144.99;92.87;52513.31;5006090;28;20387;-70
2024/03/11 03:38:46;;;;;;;;;;;;;;;-144.99;92.45;52472.56;5010150;28;20297;-69
2024/03/11 03:41:12;;;;;;;;;;;;;;;-144.99;92.33;52476.63;5001626;28;19997;-67
2024/03/11 03:43:39;;;;;;;;;;;;;;;-144.99;92.29;52444.03;5008866;28;20087;-67
2024/03/11 03:46:05;;;;;;;;;;;;;;;-144.99;92.26;52468.47;5005302;28;19980;-66
2024/03/11 03:48:33;;;;;;;;;;;;;;;-144.99;92.13;52490.91;5005557;28;20208;-65
2024/03/11 03:51:03;;;;;;;;;;;;;;;-144.99;92.08;52476.63;5006052;28;19956;-66
2024/03/11 03:53:30;;;;;;;;;;;;;;;-144.99;92.19;52505.16;5008835;28;19940;-66
2024/03/11 03:55:57;;;;;;;;;;;;;;;-144.99;91.90;52505.16;5011039;28;19972;-70
2024/03/11 03:58:24;;;;;;;;;;;;;;;-144.99;92.00;52480.72;5009122;28;20306;-70
2024/03/11 04:00:50;;;;;;;;;;;;;;;-144.99;92.01;52497.00;5010453;28;19956;-70
2024/03/11 04:03:18;;;;;;;;;;;;;;;-144.99;92.06;52468.47;5007215;28;20391;-69
2024/03/11 04:05:48;;;;;;;;;;;;;;;-144.99;92.07;52435.88;5004493;28;19939;-70
2024/03/11 04:08:16;;;;;;;;;;;;;;;-144.99;92.24;52435.88;5002452;28;20040;-69
2024/03/11 04:10:42;;;;;;;;;;;;;;;-144.99;92.12;52460.31;4999412;28;20018;-69
2024/03/11 04:13:12;;;;;;;;;;;;;;;-144.99;91.98;52468.47;5006299;28;20072;-70
2024/03/11 04:15:40;;;;;;;;;;;;;;;-144.99;92.23;52435.88;5005924;28;19948;-70
2024/03/11 04:18:07;;;;;;;;;;;;;;;-144.99;92.44;52492.94;5004176;28;19938;-72
2024/03/11 04:20:34;;;;;;;;;;;;;;;-144.99;92.20;52472.56;4999564;28;20090;-69
2024/03/11 04:23:02;;;;;;;;;;;;;;;-144.99;91.93;52476.63;5004639;28;20016;-69
2024/03/11 04:25:31;;;;;;;;;;;;;;;-144.99;91.76;52446.06;5005755;28;20026;-68
2024/03/11 04:27:59;;;;;;;;;;;;;;;-144.99;91.53;52517.41;5003302;28;19938;-68
2024/03/11 04:30:28;;;;;;;;;;;;;;;-144.99;91.90;52474.59;5010068;28;20314;-68
2024/03/11 04:32:55;;;;;;;;;;;;;;;-144.99;91.72;52472.56;4999992;28;19932;-68
2024/03/11 04:35:24;;;;;;;;;;;;;;;-144.99;92.27;52462.34;5004337;28;19944;-67
2024/03/11 04:37:51;;;;;;;;;;;;;;;-144.99;92.00;52452.16;5007097;28;19949;-68
2024/03/11 04:40:17;;;;;;;;;;;;;;;-144.99;91.98;52472.56;5009343;28;19952;-67
2024/03/11 04:42:45;;;;;;;;;;;;;;;-144.99;91.89;52484.78;5008209;28;19962;-67
2024/03/11 04:45:12;;;;;;;;;;;;;;;-144.99;91.91;52484.78;5009704;28;19951;-68
2024/03/11 04:47:39;;;;;;;;;;;;;;;-144.99;92.06;52458.28;5009006;28;20341;-69
2024/03/11 04:50:10;;;;;;;;;;;;;;;-144.99;91.84;52480.72;5009695;28;20145;-71
2024/03/11 04:52:37;;;;;;;;;;;;;;;-144.99;91.84;52497.00;5010078;28;19945;-71
2024/03/11 04:55:04;;;;;;;;;;;;;;;-144.99;91.89;52499.06;5006656;28;19967;-69
2024/03/11 04:57:30;;;;;;;;;;;;;;;-144.99;91.54;52484.78;5006360;28;19944;-71
2024/03/11 04:59:58;;;;;;;;;;;;;;;-144.99;91.73;52505.16;5003528;28;20365;-70
2024/03/11 05:02:25;;;;;;;;;;;;;;;-144.99;91.58;52476.63;5004403;28;19960;-71
2024/03/11 05:04:52;;;;;;;;;;;;;;;-144.99;91.83;52466.44;5005478;28;19947;-70
2024/03/11 05:07:18;;;;;;;;;;;;;;;-144.99;92.00;52484.78;5008094;28;20020;-69
2024/03/11 05:09:46;;;;;;;;;;;;;;;-144.99;91.97;52464.41;5007563;28;20047;-69
2024/03/11 05:12:13;;;;;;;;;;;;;;;-144.99;91.54;52488.84;5009089;28;19941;-69
2024/03/11 05:14:39;;;;;;;;;;;;;;;-144.99;91.33;52464.41;5004969;28;19944;-70
2024/03/11 05:17:08;;;;;;;;;;;;;;;-144.99;91.34;52484.78;5003301;28;21260;-66
2024/03/11 05:19:35;;;;;;;;;;;;;;;-144.99;91.38;52501.09;5008170;28;19966;-65
2024/03/11 05:22:01;;;;;;;;;;;;;;;-144.99;91.67;52484.78;5001222;28;19958;-66
2024/03/11 05:24:28;;;;;;;;;;;;;;;-144.99;91.74;52472.56;5005541;28;20328;-66
2024/03/11 05:26:54;;;;;;;;;;;;;;;-144.99;91.53;52488.84;5004873;28;19981;-65
2024/03/11 05:29:21;;;;;;;;;;;;;;;-144.99;91.53;52478.66;5002209;28;20414;-68
2024/03/11 05:31:47;;;;;;;;;;;;;;;-144.99;91.58;52472.56;5007117;28;19944;-67
2024/03/11 05:34:15;;;;;;;;;;;;;;;-144.99;91.49;52488.84;5007515;28;20470;-69
2024/03/11 05:36:42;;;;;;;;;;;;;;;-144.99;91.52;52478.66;5003105;28;20286;-68
2024/03/11 05:39:09;;;;;;;;;;;;;;;-144.99;91.63;52497.00;5007016;28;19979;-69
2024/03/11 05:41:36;;;;;;;;;;;;;;;-144.99;91.56;52482.75;5005930;28;19967;-71
2024/03/11 05:44:03;;;;;;;;;;;;;;;-144.99;91.81;52492.94;5007605;28;20018;-69
2024/03/11 05:46:29;;;;;;;;;;;;;;;-144.99;91.89;52480.72;5002546;28;19937;-71
2024/03/11 05:48:56;;;;;;;;;;;;;;;-144.99;91.91;52492.94;5006555;28;19950;-70
2024/03/11 05:51:25;;;;;;;;;;;;;;;-144.99;92.11;52423.63;5007940;28;19965;-71
2024/03/11 05:53:53;;;;;;;;;;;;;;;-144.99;91.88;52492.94;5000441;28;19946;-71
2024/03/11 05:56:22;;;;;;;;;;;;;;;-144.99;91.34;52439.94;5004220;28;20359;-70
2024/03/11 05:58:48;;;;;;;;;;;;;;;-144.99;91.46;52480.72;5005936;28;19940;-70
2024/03/11 06:01:15;;;;;;;;;;;;;;;-144.99;91.35;52468.47;5006037;28;20042;-71
2024/03/11 06:03:42;;;;;;;;;;;;;;;-144.99;91.26;52480.72;5006274;28;20364;-71
2024/03/11 06:06:08;;;;;;;;;;;;;;;-144.99;90.95;52435.88;5007015;28;20194;-69
2024/03/11 06:08:37;;;;;;;;;;;;;;;-144.99;90.90;52454.22;5001563;28;20313;-70
2024/03/11 06:11:05;;;;;;;;;;;;;;;-144.99;90.78;52444.03;5006237;28;19962;-67
2024/03/11 06:13:32;;;;;;;;;;;;;;;-144.99;90.32;52468.47;5008090;28;19942;-67
2024/03/11 06:16:00;;;;;;;;;;;;;;;-144.99;90.05;52509.25;5004553;28;20035;-74
2024/03/11 06:18:28;;;;;;;;;;;;;;;-144.99;90.04;52497.00;5005434;28;19937;-74
2024/03/11 06:20:55;;;;;;;;;;;;;;;-144.99;90.28;52501.09;5003760;28;20279;-73
2024/03/11 06:23:22;;;;;;;;;;;;;;;-144.99;90.32;52466.44;5006537;28;19960;-73
2024/03/11 06:25:50;;;;;;;;;;;;;;;-144.99;90.01;52484.78;5001004;28;19981;-73
2024/03/11 06:28:19;;;;;;;;;;;;;;;-144.99;90.18;52419.56;5003669;28;19973;-70
2024/03/11 06:30:47;;;;;;;;;;;;;;;-144.99;89.85;52439.94;4313272;28;10000833;-70
2024/03/11 06:33:13;;;;;;;;;;;;;;;-144.99;90.04;52452.16;4998144;28;20015;-70
2024/03/11 06:35:40;;;;;;;;;;;;;;;-144.99;90.18;52464.41;4994667;28;19941;-70
2024/03/11 06:38:07;;;;;;;;;;;;;;;-144.99;90.20;52464.41;4999459;28;19964;-70
2024/03/11 06:40:34;;;;;;;;;;;;;;;-144.99;90.03;52494.97;4998855;28;20134;-70
2024/03/11 06:43:02;;;;;;;;;;;;;;;-144.99;90.28;52452.16;4998724;28;19979;-69
2024/03/11 06:45:29;;;;;;;;;;;;;;;-144.99;90.42;52456.25;4995227;28;20184;-70
2024/03/11 06:47:56;;;;;;;;;;;;;;;-144.99;90.53;52474.59;5000614;28;19972;-70
2024/03/11 06:50:22;;;;;;;;;;;;;;;-144.99;90.54;52460.31;5002348;28;20479;-70
2024/03/11 06:52:49;;;;;;;;;;;;;;;-144.99;90.65;52427.72;5000995;28;20039;-70
2024/03/11 06:55:16;;;;;;;;;;;;;;;-144.99;90.65;52472.56;5001682;28;19940;-70
2024/03/11 06:57:42;;;;;;;;;;;;;;;-144.99;90.45;52456.25;4993200;28;20399;-70
2024/03/11 07:00:17;;;;;;;;;;;;;;;-144.99;90.56;52476.63;4999287;28;20362;-70
2024/03/11 07:02:45;;;;;;;;;;;;;;;-144.99;90.61;52448.09;5004881;28;20348;-70
2024/03/11 07:05:13;;;;;;;;;;;;;;;-144.99;90.65;52452.16;5001141;28;19984;-70
2024/03/11 07:07:39;;;;;;;;;;;;;;;-144.99;90.49;52492.94;5005275;28;19980;-70
2024/03/11 07:10:10;;;;;;;;;;;;;;;-144.99;90.46;52456.25;5003397;28;20019;-69
2024/03/11 07:12:37;;;;;;;;;;;;;;;-144.99;90.30;52464.41;5002930;28;19944;-69
2024/03/11 07:15:05;;;;;;;;;;;;;;;-144.99;90.08;52484.78;5001168;28;19987;-70
2024/03/11 07:17:34;;;;;;;;;;;;;;;-144.99;90.20;52476.63;5004186;28;20043;-68
2024/03/11 07:20:00;;;;;;;;;;;;;;;-144.99;90.05;52458.28;5008686;28;19952;-69
2024/03/11 07:22:27;;;;;;;;;;;;;;;-144.99;90.04;52480.72;5008234;28;20029;-69
2024/03/11 07:24:54;;;;;;;;;;;;;;;-144.99;90.06;52456.25;5006325;28;19941;-69
2024/03/11 07:27:21;;;;;;;;;;;;;;;-144.99;89.98;52513.31;5007679;28;20026;-70
2024/03/11 07:29:48;;;;;;;;;;;;;;;-144.99;89.93;52468.47;5007857;28;19952;-70
2024/03/11 07:32:15;;;;;;;;;;;;;;;-144.99;90.16;52448.09;5006928;28;20352;-70
2024/03/11 07:34:43;;;;;;;;;;;;;;;-144.99;90.30;52464.41;5009027;28;20388;-69
2024/03/11 07:37:10;;;;;;;;;;;;;;;-144.99;90.15;52448.09;5001950;28;20401;-69
2024/03/11 07:39:37;;;;;;;;;;;;;;;-144.99;90.11;52492.94;5008038;28;19963;-68
2024/03/11 07:42:03;;;;;;;;;;;;;;;-144.99;89.99;52476.63;5008457;28;20464;-70
2024/03/11 07:44:30;;;;;;;;;;;;;;;-144.99;89.85;52429.75;5003224;28;20042;-70
2024/03/11 07:46:57;;;;;;;;;;;;;;;-144.99;89.96;52513.31;5007544;28;20329;-70
2024/03/11 07:49:23;;;;;;;;;;;;;;;-144.99;89.93;52501.09;5007929;28;20067;-68
2024/03/11 07:51:51;;;;;;;;;;;;;;;-144.99;89.95;52460.31;5008776;28;19937;-69
2024/03/11 07:54:17;;;;;;;;;;;;;;;-144.99;90.37;52484.78;5001036;28;19994;-69
2024/03/11 07:56:44;;;;;;;;;;;;;;;-144.99;90.50;52444.03;4662413;28;9999718;-69
2024/03/11 07:59:10;;;;;;;;;;;;;;;-144.99;90.39;52492.94;5004420;28;20286;-69
2024/03/11 08:01:37;;;;;;;;;;;;;;;-144.99;89.71;52470.50;5007711;28;20334;-68
2024/03/11 08:04:03;;;;;;;;;;;;;;;-144.99;89.76;52444.03;5008111;28;20404;-70
2024/03/11 08:06:30;;;;;;;;;;;;;;;-144.99;89.35;52419.56;4996692;28;20033;-70
2024/03/11 08:08:57;;;;;;;;;;;;;;;-144.99;89.12;52484.78;5007917;28;19947;-70
2024/03/11 08:11:24;;;;;;;;;;;;;;;-144.99;88.83;52456.25;4997145;28;20047;-70
2024/03/11 08:13:51;;;;;;;;;;;;;;;-144.99;88.95;52460.31;5003917;28;19938;-70
2024/03/11 08:16:18;;;;;;;;;;;;;;;-144.99;88.55;52492.94;5003969;28;19941;-68
2024/03/11 08:18:45;;;;;;;;;;;;;;;-144.99;88.33;52464.41;5005856;28;20398;-69
2024/03/11 08:21:11;;;;;;;;;;;;;;;-144.99;88.06;52439.94;5017089;28;20482;-69
2024/03/11 08:23:40;;;;;;;;;;;;;;;-144.99;87.90;52433.81;5007783;28;20430;-69
2024/03/11 08:26:08;;;;;;;;;;;;;;;-144.99;87.92;52429.75;5005769;28;19948;-70
2024/03/11 08:28:38;;;;;;;;;;;;;;;-144.99;87.81;52484.78;4997712;28;20004;-69
2024/03/11 08:31:07;;;;;;;;;;;;;;;-144.99;87.97;52446.06;4997094;28;20167;-69
2024/03/11 08:33:34;;;;;;;;;;;;;;;-144.99;88.05;52497.00;5001008;28;19952;-69
2024/03/11 08:36:01;;;;;;;;;;;;;;;-144.99;88.21;52439.94;5001452;28;20390;-69
2024/03/11 08:38:28;;;;;;;;;;;;;;;-144.99;88.24;52470.50;5000009;28;20049;-69
2024/03/11 08:40:55;;;;;;;;;;;;;;;-144.99;88.65;52464.41;5000301;28;20302;-69
2024/03/11 08:43:22;;;;;;;;;;;;;;;-144.99;88.47;52464.41;5003841;28;20126;-69
2024/03/11 08:45:49;;;;;;;;;;;;;;;-144.99;88.33;52456.25;5004296;28;20347;-69
2024/03/11 08:48:16;;;;;;;;;;;;;;;-144.99;88.18;52419.56;5010440;28;20000;-70
2024/03/11 08:50:42;;;;;;;;;;;;;;;-144.99;88.11;52448.09;5014698;28;19969;-70
2024/03/11 08:53:09;;;;;;;;;;;;;;;-144.99;88.34;52460.31;5007292;28;20622;-70
2024/03/11 08:55:36;;;;;;;;;;;;;;;-144.99;88.83;52492.94;5001326;28;19954;-68
2024/03/11 08:58:05;;;;;;;;;;;;;;;-144.99;89.19;52435.88;5009599;28;20019;-70
2024/03/11 09:00:36;;;;;;;;;;;;;;;-144.99;89.16;52452.16;5013913;28;19966;-69
2024/03/11 09:03:03;;;;;;;;;;;;;;;-144.99;89.40;52456.25;5012008;28;19957;-69
2024/03/11 09:05:31;;;;;;;;;;;;;;;-144.99;89.02;52480.72;5007821;28;20030;-69
2024/03/11 09:07:58;;;;;;;;;;;;;;;-144.99;88.90;52450.13;5003060;28;20265;-70
2024/03/11 09:10:24;;;;;;;;;;;;;;;-144.99;88.70;52454.22;5006110;28;19954;-70
2024/03/11 09:12:51;;;;;;;;;;;;;;;-144.99;88.49;52439.94;5002266;28;19943;-70
2024/03/11 09:15:18;;;;;;;;;;;;;;;-144.99;88.56;52497.00;5008930;28;19943;-69
2024/03/11 09:17:47;;;;;;;;;;;;;;;-144.99;88.66;52444.03;5001770;28;20284;-69
2024/03/11 09:20:16;;;;;;;;;;;;;;;-144.99;88.55;52444.03;5005297;28;19982;-69
2024/03/11 09:22:45;;;;;;;;;;;;;;;-144.99;88.67;52423.63;5007090;28;19990;-69
2024/03/11 09:25:17;;;;;;;;;;;;;;;-144.99;88.58;52488.84;5015162;28;19971;-69
2024/03/11 09:27:43;;;;;;;;;;;;;;;-144.99;88.52;52464.41;5003476;28;20646;-70
2024/03/11 09:30:11;;;;;;;;;;;;;;;-144.99;88.71;52464.41;5009696;28;19963;-69
2024/03/11 09:32:37;;;;;;;;;;;;;;;-144.99;88.95;52441.97;5014993;28;20317;-70
2024/03/11 09:35:06;;;;;;;;;;;;;;;-144.99;89.05;52472.56;5013861;28;20331;-70
2024/03/11 09:37:33;;;;;;;;;;;;;;;-144.99;89.16;52444.03;5017721;28;19942;-70
2024/03/11 09:40:01;;;;;;;;;;;;;;;-144.99;88.88;52415.47;5008277;28;19996;-70
2024/03/11 09:42:30;;;;;;;;;;;;;;;-144.99;88.83;52484.78;5011652;28;19937;-70
2024/03/11 09:44:57;;;;;;;;;;;;;;;-144.99;88.67;52472.56;5003007;28;19993;-71
2024/03/11 09:47:24;;;;;;;;;;;;;;;-144.99;88.50;52476.63;5005131;28;20445;-70
2024/03/11 09:49:53;;;;;;;;;;;;;;;-144.99;88.47;52462.34;5001497;28;19964;-70
2024/03/11 09:52:22;;;;;;;;;;;;;;;-144.99;88.28;52452.16;5006993;28;20039;-69
2024/03/11 09:54:49;;;;;;;;;;;;;;;-144.99;87.97;52456.25;4998317;28;19938;-69
2024/03/11 09:57:15;;;;;;;;;;;;;;;-144.99;88.06;52431.78;4995024;28;19987;-69
2024/03/11 09:59:49;;;;;;;;;;;;;;;-144.99;88.14;52458.28;4998261;28;20019;-69
2024/03/11 10:02:20;;;;;;;;;;;;;;;-144.99;88.10;52439.94;4997957;28;19965;-69
2024/03/11 10:04:46;;;;;;;;;;;;;;;-144.99;87.88;52460.31;5000704;28;20402;-69
2024/03/11 10:07:13;;;;;;;;;;;;;;;-144.99;87.73;52460.31;5003266;28;20025;-69
2024/03/11 10:09:45;;;;;;;;;;;;;;;-144.99;87.63;52441.97;5004344;28;20054;-69
2024/03/11 10:12:12;;;;;;;;;;;;;;;-144.99;87.59;52431.78;5001765;28;20480;-69
2024/03/11 10:14:39;;;;;;;;;;;;;;;-144.99;87.60;52435.88;5006187;28;19998;-69
2024/03/11 10:17:20;;;;;;;;;;;;;;;-144.99;87.63;52435.88;5001908;28;19942;-69
2024/03/11 10:19:47;;;;;;;;;;;;;;;-144.99;87.37;52448.09;5006087;28;19994;-69
2024/03/11 10:22:21;;;;;;;;;;;;;;;-144.99;87.26;52411.41;5006321;28;19947;-69
2024/03/11 10:24:49;;;;;;;;;;;;;;;-144.99;87.00;52423.63;5005588;28;20372;-70
2024/03/11 10:27:18;;;;;;;;;;;;;;;-144.99;86.90;52452.16;5005651;28;19982;-70
2024/03/11 10:29:45;;;;;;;;;;;;;;;-144.99;86.88;52456.25;5000512;28;20413;-69
2024/03/11 10:32:14;;;;;;;;;;;;;;;-144.99;87.11;52444.03;5005833;28;19940;-68
2024/03/11 10:34:53;;;;;;;;;;;;;;;-144.99;87.27;52403.25;4996809;28;20060;-70
2024/03/11 10:37:21;;;;;;;;;;;;;;;-144.99;87.57;52464.41;4999403;28;19978;-70
2024/03/11 10:39:48;;;;;;;;;;;;;;;-144.99;87.65;52460.31;4999888;28;20142;-70
2024/03/11 10:42:28;;;;;;;;;;;;;;;-144.99;87.97;52452.16;5005703;28;19938;-70
2024/03/11 10:44:54;;;;;;;;;;;;;;;-144.99;88.13;52476.63;5005637;28;19996;-70
2024/03/11 10:47:23;;;;;;;;;;;;;;;-144.99;88.44;52431.78;5005673;28;20185;-69
2024/03/11 10:49:50;;;;;;;;;;;;;;;-144.99;88.25;52431.78;5001040;28;19952;-69
2024/03/11 10:52:20;;;;;;;;;;;;;;;-144.99;88.21;52444.03;5005120;28;20379;-69
2024/03/11 10:54:47;;;;;;;;;;;;;;;-144.99;87.98;52492.94;5005734;28;19965;-69
2024/03/11 10:57:24;;;;;;;;;;;;;;;-144.99;87.80;52441.97;5005950;28;19946;-69
2024/03/11 10:59:50;;;;;;;;;;;;;;;-144.99;88.03;52497.00;5002347;28;20066;-69
2024/03/11 11:02:22;;;;;;;;;;;;;;;-144.99;88.15;52429.75;5001268;28;20020;-69
2024/03/11 11:04:52;;;;;;;;;;;;;;;-144.99;88.48;52462.34;5004446;28;20452;-69
2024/03/11 11:07:20;;;;;;;;;;;;;;;-144.99;88.71;52444.03;4999360;28;20020;-69
2024/03/11 11:09:49;;;;;;;;;;;;;;;-144.99;88.64;52423.63;4998008;28;20001;-70
2024/03/11 11:12:22;;;;;;;;;;;;;;;-144.99;89.13;52446.06;4997912;28;19957;-70
2024/03/11 11:14:49;;;;;;;;;;;;;;;-144.99;89.09;52474.59;5004529;28;20032;-70
2024/03/11 11:17:17;;;;;;;;;;;;;;;-144.99;89.23;52444.03;5004932;28;20437;-70
2024/03/11 11:19:44;;;;;;;;;;;;;;;-144.99;89.76;52464.41;4996615;28;19960;-70
2024/03/11 11:22:11;;;;;;;;;;;;;;;-144.99;89.86;52444.03;4998677;28;20076;-70
2024/03/11 11:24:42;;;;;;;;;;;;;;;-144.99;90.06;52456.25;4998635;28;20051;-70
2024/03/11 11:27:13;;;;;;;;;;;;;;;-144.99;89.93;52484.78;5004401;28;19948;-68
2024/03/11 11:29:42;;;;;;;;;;;;;;;-144.99;90.62;52441.97;5002636;28;20400;-69
2024/03/11 11:32:11;;;;;;;;;;;;;;;-144.99;90.69;52444.03;4995112;28;19943;-69
2024/03/11 11:34:51;;;;;;;;;;;;;;;-144.99;90.80;52484.78;4994807;28;19953;-69
2024/03/11 11:37:43;;;;;;;;;;;;;;;-144.99;90.90;52468.47;5002375;28;19939;-70
2024/03/11 11:40:31;;;;;;;;;;;;;;;-144.99;90.81;52439.94;4997133;28;19956;-70
2024/03/11 11:42:59;;;;;;;;;;;;;;;-144.99;91.02;52452.16;4998183;28;19940;-70
2024/03/11 11:45:44;;;;;;;;;;;;;;;-144.99;91.11;52497.00;4995484;28;20056;-70
2024/03/11 11:48:20;;;;;;;;;;;;;;;-144.99;91.18;52450.13;5004717;28;20030;-69
2024/03/11 11:50:46;;;;;;;;;;;;;;;-144.99;91.32;52464.41;4996856;28;19963;-69
2024/03/11 11:53:14;;;;;;;;;;;;;;;-144.99;91.55;52403.25;4997545;28;20005;-71
2024/03/11 11:55:49;;;;;;;;;;;;;;;-144.99;91.89;52476.63;5001197;28;19984;-69
2024/03/11 11:58:16;;;;;;;;;;;;;;;-144.99;91.84;52407.31;5001466;28;19980;-69
2024/03/11 12:00:43;;;;;;;;;;;;;;;-144.99;91.96;52427.72;4996752;28;19963;-69
2024/03/11 12:03:27;;;;;;;;;;;;;;;-144.99;91.77;52480.72;4998196;28;20021;-68
2024/03/11 12:06:18;;;;;;;;;;;;;;;-144.99;91.56;52429.75;4997236;28;20029;-69
2024/03/11 12:08:45;;;;;;;;;;;;;;;-144.99;91.46;52460.31;4993580;28;19948;-68
2024/03/11 12:11:12;;;;;;;;;;;;;;;-144.99;91.73;52435.88;5006790;28;20367;-70
2024/03/11 12:13:39;;;;;;;;;;;;;;;-144.99;91.50;52441.97;5006985;28;19969;-68
2024/03/11 12:16:09;;;;;;;;;;;;;;;-144.99;91.96;52454.22;5005400;28;19977;-69
2024/03/11 12:18:39;;;;;;;;;;;;;;;-144.99;92.04;52472.56;5007468;28;19941;-69
2024/03/11 12:21:07;;;;;;;;;;;;;;;-144.99;91.81;52476.63;5001435;28;19933;-69
2024/03/11 12:23:34;;;;;;;;;;;;;;;-144.99;91.58;52423.63;4996903;28;20021;-69
2024/03/11 12:26:00;;;;;;;;;;;;;;;-144.99;91.31;52419.56;4990061;28;19929;-70
2024/03/11 12:28:27;;;;;;;;;;;;;;;-144.99;90.93;52417.53;4999264;28;20328;-69